Time;durP1;ratioP1;P1;durP2;ratioP2;P2;SDS_P1;SDS_P2;PMS_P1;PMS_P2;Temp;Humidity;BMP_temperature;BMP_pressure;BME280_temperature;BME280_humidity;BME280_pressure;Samples;Min_cycle;Max_cycle;Signal;HPM_P1;HPM_P2
2022/10/03 00:00:29;;;;;;;50.83;19.08;;;;;;;13.16;95.42;100752.16;5073954;28;20112;-85
2022/10/03 00:03:23;;;;;;;52.45;19.80;;;;;;;13.10;95.32;100751.84;5082897;28;20034;-85
2022/10/03 00:06:10;;;;;;;49.47;20.33;;;;;;;13.12;95.26;100758.72;5074215;28;20548;-85
2022/10/03 00:08:39;;;;;;;52.35;18.85;;;;;;;13.23;95.22;100764.00;5082973;28;20044;-85
2022/10/03 00:11:06;;;;;;;51.53;19.35;;;;;;;13.22;95.41;100758.81;5098633;28;20040;-85
2022/10/03 00:13:49;;;;;;;48.85;19.48;;;;;;;13.15;95.44;100763.81;5082997;28;20055;-85
2022/10/03 00:16:21;;;;;;;52.97;19.52;;;;;;;13.18;95.36;100763.56;5099227;28;20094;-85
2022/10/03 00:18:51;;;;;;;58.95;20.73;;;;;;;13.23;95.38;100768.50;5067190;28;20040;-85
2022/10/03 00:21:32;;;;;;;69.18;21.80;;;;;;;13.19;94.90;100775.06;5066085;28;20093;-85
2022/10/03 00:24:18;;;;;;;60.08;19.65;;;;;;;13.20;95.37;100776.75;5102091;28;20043;-85
2022/10/03 00:26:52;;;;;;;60.55;20.67;;;;;;;13.21;95.21;100784.63;5073382;28;20055;-85
2022/10/03 00:29:46;;;;;;;55.38;19.23;;;;;;;13.18;95.33;100786.72;5077463;28;20040;-85
2022/10/03 00:32:32;;;;;;;61.88;20.35;;;;;;;13.13;95.46;100780.94;5090735;28;20074;-85
2022/10/03 00:35:19;;;;;;;50.78;19.40;;;;;;;13.12;95.54;100781.88;5088187;28;20044;-85
2022/10/03 00:38:14;;;;;;;57.13;18.80;;;;;;;13.13;95.88;100791.59;5063365;28;20044;-84
2022/10/03 00:40:59;;;;;;;51.22;20.50;;;;;;;13.10;95.81;100781.16;5098686;28;20048;-85
2022/10/03 00:43:59;;;;;;;48.13;18.98;;;;;;;13.05;95.98;100784.22;5091543;28;20040;-85
2022/10/03 00:46:46;;;;;;;47.88;17.05;;;;;;;13.11;95.91;100786.38;5069854;28;20150;-85
2022/10/03 00:49:31;;;;;;;56.67;19.50;;;;;;;13.16;96.41;100799.34;5072784;28;20079;-85
2022/10/03 00:52:19;;;;;;;51.17;18.02;;;;;;;13.06;96.14;100795.75;5099271;28;20040;-84
2022/10/03 00:54:59;;;;;;;47.95;17.27;;;;;;;13.08;95.79;100796.44;5064153;28;20048;-84
2022/10/03 00:57:55;;;;;;;52.08;18.77;;;;;;;13.07;95.83;100792.09;5058412;28;20070;-84
2022/10/03 01:00:26;;;;;;;50.97;19.10;;;;;;;13.14;95.94;100796.78;5089426;28;20138;-84
2022/10/03 01:03:27;;;;;;;50.13;18.52;;;;;;;13.07;95.79;100797.44;5072812;28;20115;-84
2022/10/03 01:06:06;;;;;;;61.63;21.27;;;;;;;13.09;95.75;100785.66;5084279;28;20047;-84
2022/10/03 01:08:48;;;;;;;52.50;19.92;;;;;;;13.10;95.55;100784.69;5098235;28;20079;-84
2022/10/03 01:11:49;;;;;;;66.93;22.73;;;;;;;13.08;95.34;100783.97;5099990;28;20034;-85
2022/10/03 01:14:25;;;;;;;54.20;21.05;;;;;;;13.15;95.34;100792.28;5073502;28;20035;-85
2022/10/03 01:16:52;;;;;;;55.67;19.15;;;;;;;13.19;95.20;100797.25;5079400;28;20049;-85
2022/10/03 01:19:33;;;;;;;50.13;18.83;;;;;;;13.15;94.98;100797.63;5086536;28;20483;-84
2022/10/03 01:22:31;;;;;;;55.65;19.73;;;;;;;13.06;95.13;100803.75;5101797;28;20039;-84
2022/10/03 01:25:11;;;;;;;56.28;20.40;;;;;;;13.10;95.39;100794.50;5096032;28;20040;-84
2022/10/03 01:30:52;;;;;;;49.85;18.75;;;;;;;13.10;95.33;100800.69;5090591;28;20035;-84
2022/10/03 01:33:27;;;;;;;60.08;20.33;;;;;;;13.16;95.43;100804.66;5067746;28;20044;-84
2022/10/03 01:36:18;;;;;;;51.47;18.73;;;;;;;13.03;95.27;100811.03;5063662;28;20070;-84
2022/10/03 01:38:54;;;;;;;52.65;19.73;;;;;;;13.09;95.06;100808.81;5084892;28;20067;-84
2022/10/03 01:41:27;;;;;;;58.33;20.30;;;;;;;13.11;95.33;100814.88;5072515;28;20127;-84
2022/10/03 01:44:00;;;;;;;58.65;20.33;;;;;;;13.09;95.33;100815.00;5085372;28;20047;-84
2022/10/03 01:46:52;;;;;;;64.78;22.00;;;;;;;13.00;95.25;100808.63;5073789;28;20048;-85
2022/10/03 01:49:42;;;;;;;52.53;19.25;;;;;;;13.06;95.38;100820.59;5072818;28;20090;-85
2022/10/03 01:52:24;;;;;;;52.72;18.23;;;;;;;13.00;95.50;100827.28;5076446;28;20452;-85
2022/10/03 01:55:12;;;;;;;55.25;19.80;;;;;;;13.08;95.24;100828.44;5103539;28;20044;-85
2022/10/03 01:57:46;;;;;;;56.75;19.20;;;;;;;13.08;94.93;100828.44;5087772;28;20055;-85
2022/10/03 02:00:16;;;;;;;52.40;18.35;;;;;;;13.12;94.58;100822.72;5086899;28;20465;-85
2022/10/03 02:03:07;;;;;;;49.47;19.58;;;;;;;13.06;94.54;100830.41;5070009;28;20036;-85
2022/10/03 02:05:57;;;;;;;54.20;18.80;;;;;;;13.04;94.56;100833.19;5076083;28;20449;-85
2022/10/03 02:08:39;;;;;;;54.05;18.70;;;;;;;13.06;94.26;100841.06;5086707;28;20367;-85
2022/10/03 02:11:09;;;;;;;57.08;19.70;;;;;;;13.09;94.72;100843.47;5079689;28;20075;-84
2022/10/03 02:13:46;;;;;;;48.88;18.55;;;;;;;13.03;94.26;100840.34;5078829;28;20052;-84
2022/10/03 02:16:29;;;;;;;54.13;18.33;;;;;;;13.06;94.34;100839.25;5073867;28;20610;-84
2022/10/03 02:19:05;;;;;;;47.70;18.38;;;;;;;13.01;94.07;100841.44;5044463;28;20436;-84
2022/10/03 02:21:45;;;;;;;47.25;16.88;;;;;;;13.00;94.12;100845.06;5076509;28;20055;-84
2022/10/03 02:24:15;;;;;;;46.58;18.63;;;;;;;13.07;94.42;100848.09;5095044;28;20044;-84
2022/10/03 02:27:00;;;;;;;47.90;16.80;;;;;;;13.03;94.63;100851.00;5090892;28;20048;-84
2022/10/03 02:29:50;;;;;;;43.83;16.60;;;;;;;12.91;94.24;100851.19;5087040;28;20077;-84
2022/10/03 02:32:42;;;;;;;52.63;17.67;;;;;;;12.93;94.52;100851.91;5070825;28;20044;-84
2022/10/03 02:35:14;;;;;;;54.03;17.77;;;;;;;12.97;94.60;100848.00;5068395;28;20043;-84
2022/10/03 02:38:04;;;;;;;48.88;17.50;;;;;;;12.99;94.74;100851.38;5104170;28;20093;-84
2022/10/03 02:40:56;;;;;;;47.60;16.52;;;;;;;12.90;94.43;100849.47;5060881;28;20099;-84
2022/10/03 02:43:31;;;;;;;43.80;16.00;;;;;;;12.85;94.40;100852.53;5083768;28;20052;-84
2022/10/03 02:46:08;;;;;;;49.63;18.48;;;;;;;12.84;94.27;100850.81;5085607;28;20043;-84
2022/10/03 02:48:47;;;;;;;47.25;17.25;;;;;;;12.86;94.40;100856.03;5066733;28;20051;-84
2022/10/03 02:51:38;;;;;;;48.65;17.27;;;;;;;12.78;94.38;100852.19;5083875;28;20055;-84
2022/10/03 02:54:24;;;;;;;41.53;15.63;;;;;;;12.85;94.50;100851.66;5084591;28;20056;-84
2022/10/03 02:57:09;;;;;;;47.40;18.08;;;;;;;12.91;94.49;100851.19;5073430;28;20051;-84
2022/10/03 02:59:40;;;;;;;49.25;17.63;;;;;;;12.90;94.29;100852.13;5088010;28;20052;-85
2022/10/03 03:02:25;;;;;;;51.85;17.13;;;;;;;12.81;94.53;100846.59;5099741;28;20089;-84
2022/10/03 03:05:24;;;;;;;47.05;16.88;;;;;;;12.78;94.36;100854.84;5062574;28;20047;-84
2022/10/03 03:08:02;;;;;;;50.22;16.30;;;;;;;12.85;94.00;100849.88;5069210;28;20104;-84
2022/10/03 03:11:05;;;;;;;50.08;17.95;;;;;;;12.77;93.98;100857.63;5101621;28;20035;-84
2022/10/03 03:14:10;;;;;;;49.00;16.10;;;;;;;12.87;93.86;100847.06;5088138;28;20039;-84
2022/10/03 03:16:56;;;;;;;42.92;16.52;;;;;;;12.84;94.35;100842.81;4988296;28;20045;-84
2022/10/03 03:19:45;;;;;;;45.72;16.70;;;;;;;12.75;93.74;100852.44;5078474;28;20044;-84
2022/10/03 03:22:40;;;;;;;51.88;18.05;;;;;;;12.76;93.29;100848.78;5078975;28;20048;-84
2022/10/03 03:25:13;;;;;;;47.63;17.20;;;;;;;12.85;93.33;100849.88;5086105;28;20442;-84
2022/10/03 03:28:10;;;;;;;47.20;17.13;;;;;;;12.68;93.28;100851.22;5084753;28;20057;-85
2022/10/03 03:31:07;;;;;;;54.33;17.85;;;;;;;12.68;93.28;100859.22;5102383;28;20044;-84
2022/10/03 03:34:05;;;;;;;44.63;16.08;;;;;;;12.70;93.56;100856.44;5062002;28;20044;-84
2022/10/03 03:36:46;;;;;;;55.15;18.30;;;;;;;12.65;93.88;100863.97;5076037;28;20459;-85
2022/10/03 03:39:34;;;;;;;54.30;17.67;;;;;;;12.77;93.32;100874.47;5058686;28;20048;-84
2022/10/03 03:42:41;;;;;;;54.50;17.90;;;;;;;12.65;93.02;100878.13;5095147;28;20509;-84
2022/10/03 03:45:24;;;;;;;51.08;17.98;;;;;;;12.70;92.48;100875.09;5086647;28;20383;-84
2022/10/03 03:48:14;;;;;;;60.58;18.13;;;;;;;12.63;92.98;100879.22;5083851;28;20097;-84
2022/10/03 03:50:47;;;;;;;48.22;17.35;;;;;;;12.68;93.35;100879.72;5100430;28;20101;-84
2022/10/03 03:53:21;;;;;;;47.88;17.33;;;;;;;12.60;93.09;100881.16;5092040;28;20039;-84
2022/10/03 03:56:18;;;;;;;48.85;18.52;;;;;;;12.52;93.12;100880.94;5085181;28;20140;-84
2022/10/03 03:59:12;;;;;;;52.85;17.30;;;;;;;12.56;93.54;100885.03;5069023;28;20659;-84
2022/10/03 04:01:41;;;;;;;46.55;16.95;;;;;;;12.66;93.93;100885.16;5090122;28;20048;-84
2022/10/03 04:04:31;;;;;;;53.38;17.60;;;;;;;12.58;93.56;100885.75;5102377;28;20044;-84
2022/10/03 04:07:52;;;;;;;55.03;19.50;;;;;;;12.52;93.80;100891.59;5066845;28;20138;-85
2022/10/03 04:10:41;;;;;;;51.28;17.70;;;;;;;12.57;93.50;100885.91;4967107;28;20074;-85
2022/10/03 04:13:39;;;;;;;46.53;17.30;;;;;;;12.57;93.54;100893.91;5082732;28;20040;-85
2022/10/03 04:16:06;;;;;;;38.40;14.20;;;;;;;12.66;91.77;100893.13;5085666;28;20101;-84
2022/10/03 04:18:59;;;;;;;44.05;16.50;;;;;;;12.54;91.04;100894.13;5101333;28;20054;-85
2022/10/03 04:21:29;;;;;;;;;;;;;;;12.35;92.96;100890.25;5085533;28;20154;-85
2022/10/03 04:24:22;;;;;;;37.60;14.00;;;;;;;12.56;91.54;100894.84;5090725;28;19924;-85
2022/10/03 04:26:51;;;;;;;38.63;16.05;;;;;;;12.55;92.85;100886.00;5085323;28;20130;-85
2022/10/03 04:29:39;;;;;;;41.40;16.58;;;;;;;12.48;92.43;100887.47;5085210;28;20093;-84
2022/10/03 04:32:33;;;;;;;47.90;16.85;;;;;;;12.53;92.71;100889.78;5072682;28;20055;-84
2022/10/03 04:35:35;;;;;;;43.13;15.75;;;;;;;12.47;93.21;100888.44;5082788;28;20073;-85
2022/10/03 04:38:14;;;;;;;40.30;16.08;;;;;;;12.58;93.34;100899.09;5092189;28;20039;-85
2022/10/03 04:40:58;;;;;;;45.75;16.38;;;;;;;12.43;93.65;100896.81;5086864;28;20469;-84
2022/10/03 04:43:38;;;;;;;39.67;17.10;;;;;;;12.47;93.62;100895.59;5057887;28;20075;-84
2022/10/03 04:46:28;;;;;;;43.72;16.80;;;;;;;12.56;93.38;100894.84;5074457;28;20047;-84
2022/10/03 04:49:01;;;;;;;44.80;16.90;;;;;;;12.60;93.34;100899.81;5084317;28;20692;-84
2022/10/03 04:51:34;;;;;;;39.33;16.40;;;;;;;12.60;93.21;100899.81;5077502;28;20039;-84
2022/10/03 04:54:21;;;;;;;36.67;16.80;;;;;;;12.45;92.48;100897.53;5099004;28;20036;-84
2022/10/03 04:56:57;;;;;;;40.95;16.42;;;;;;;12.51;92.74;100900.53;5071857;28;20479;-84
2022/10/03 04:59:33;;;;;;;37.80;15.70;;;;;;;12.52;92.70;100901.41;5075136;28;20035;-84
2022/10/03 05:02:13;;;;;;;41.60;16.15;;;;;;;12.48;91.98;100906.13;5089871;28;20055;-84
2022/10/03 05:04:46;;;;;;;35.10;15.25;;;;;;;12.54;92.58;100902.97;5072470;28;20050;-84
2022/10/03 05:07:30;;;;;;;38.67;15.13;;;;;;;12.45;92.66;100905.53;5096784;28;20453;-84
2022/10/03 05:10:29;;;;;;;38.47;14.70;;;;;;;12.40;93.06;100908.53;5099104;28;20059;-84
2022/10/03 05:12:59;;;;;;;39.58;15.48;;;;;;;12.57;93.35;100909.88;5060207;28;20044;-85
2022/10/03 05:15:33;;;;;;;35.38;15.40;;;;;;;12.55;92.88;100918.00;5083840;28;20074;-84
2022/10/03 05:18:21;;;;;;;38.95;15.57;;;;;;;12.59;92.77;100918.56;5064673;28;20086;-85
2022/10/03 05:21:14;;;;;;;37.78;14.45;;;;;;;12.51;93.07;100921.00;5083587;28;20035;-84
2022/10/03 05:24:18;;;;;;;39.15;15.90;;;;;;;12.46;93.52;100916.03;5086690;28;20035;-85
2022/10/03 05:26:55;;;;;;;;;;;;;;;12.31;94.23;100920.78;5085276;28;20036;-85
2022/10/03 05:29:32;;;;;;;42.03;16.15;;;;;;;12.45;93.90;100922.34;5098228;28;19970;-84
2022/10/03 05:32:20;;;;;;;39.42;14.27;;;;;;;12.41;93.67;100920.03;5085844;28;20036;-84
2022/10/03 05:35:06;;;;;;;37.20;15.32;;;;;;;12.54;93.75;100939.41;5073177;28;20088;-84
2022/10/03 05:38:10;;;;;;;34.75;12.80;;;;;;;12.37;93.35;100932.78;5069960;28;20662;-85
2022/10/03 05:40:39;;;;;;;45.58;14.15;;;;;;;12.46;93.77;100941.84;5071558;28;20048;-85
2022/10/03 05:43:35;;;;;;;33.08;13.43;;;;;;;12.39;93.35;100944.16;5066975;28;20051;-85
2022/10/03 05:46:39;;;;;;;38.90;13.40;;;;;;;12.42;93.31;100951.06;5083769;28;20047;-84
2022/10/03 05:49:42;;;;;;;36.42;14.55;;;;;;;12.42;92.98;100949.25;5099657;28;20039;-84
2022/10/03 05:52:40;;;;;;;36.10;13.93;;;;;;;12.39;93.14;100954.81;5099556;28;20499;-84
2022/10/03 05:55:09;;;;;;;36.20;14.85;;;;;;;12.50;92.99;100959.28;5086800;28;20112;-83
2022/10/03 05:58:04;;;;;;;39.20;15.95;;;;;;;12.42;92.59;100959.06;5066423;28;20121;-84
2022/10/03 06:00:54;;;;;;;41.55;14.65;;;;;;;12.47;92.62;100954.22;5071862;28;20037;-84
2022/10/03 06:03:55;;;;;;;40.97;15.75;;;;;;;12.42;93.10;100954.56;5061143;28;20040;-84
2022/10/03 06:06:43;;;;;;;37.10;14.07;;;;;;;12.51;93.05;100963.63;5096529;28;20036;-84
2022/10/03 06:09:16;;;;;;;39.92;15.05;;;;;;;12.52;93.09;100960.03;5076309;28;20451;-84
2022/10/03 06:11:57;;;;;;;42.78;14.90;;;;;;;12.45;92.54;100972.13;5079668;28;20124;-84
2022/10/03 06:14:50;;;;;;;44.20;15.15;;;;;;;12.40;92.37;100975.13;5069134;28;20068;-84
2022/10/03 06:17:52;;;;;;;32.88;14.02;;;;;;;12.39;91.88;100962.81;5084829;28;20040;-84
2022/10/03 06:20:47;;;;;;;34.72;15.13;;;;;;;12.46;92.21;100963.16;5057967;28;20047;-84
2022/10/03 06:23:38;;;;;;;35.70;15.05;;;;;;;12.51;92.82;100971.63;5073267;28;20564;-85
2022/10/03 06:26:19;;;;;;;37.03;14.73;;;;;;;12.57;93.49;100973.81;5099087;28;20040;-85
2022/10/03 06:29:08;;;;;;;37.60;16.27;;;;;;;12.60;92.84;100963.75;5066610;28;20058;-85
2022/10/03 06:32:02;;;;;;;35.03;15.07;;;;;;;12.48;92.89;100982.53;5080378;28;20536;-85
2022/10/03 06:34:35;;;;;;;30.13;13.00;;;;;;;12.57;92.86;100977.34;5104713;28;20558;-85
2022/10/03 06:37:21;;;;;;;;;;;;;;;12.35;93.36;100985.31;5070858;28;20540;-85
2022/10/03 06:40:15;;;;;;;37.10;14.57;;;;;;;12.46;93.54;100993.28;5103239;28;19920;-85
2022/10/03 06:42:47;;;;;;;34.90;14.02;;;;;;;12.57;93.21;100992.47;5102152;28;20078;-86
2022/10/03 06:45:15;;;;;;;;;;;;;;;12.44;94.41;101000.59;5069934;28;20539;-86
2022/10/03 06:47:46;;;;;;;33.33;13.75;;;;;;;12.58;93.60;100997.66;5088539;28;20547;-85
2022/10/03 06:50:17;;;;;;;32.67;13.18;;;;;;;12.61;93.36;101001.91;5077887;28;20071;-85
2022/10/03 06:53:23;;;;;;;37.15;14.05;;;;;;;12.53;93.24;101005.19;5080514;28;20086;-84
2022/10/03 06:56:25;;;;;;;31.05;13.77;;;;;;;12.55;94.11;101007.72;5069898;28;20104;-84
2022/10/03 06:59:09;;;;;;;41.42;17.85;;;;;;;12.65;93.52;101013.19;5075008;28;20044;-84
2022/10/03 07:01:52;;;;;;;44.72;18.20;;;;;;;12.72;93.84;101025.03;5101183;28;20483;-83
2022/10/03 07:04:48;;;;;;;42.17;17.45;;;;;;;12.77;93.35;101015.75;5082143;28;20032;-84
2022/10/03 07:07:20;;;;;;;37.90;15.82;;;;;;;12.85;93.17;101014.25;5070828;28;20052;-83
2022/10/03 07:10:02;;;;;;;40.35;16.33;;;;;;;12.81;93.01;101011.84;5081742;28;20081;-83
2022/10/03 07:12:38;;;;;;;40.38;16.52;;;;;;;12.85;93.13;101008.94;5072196;28;20040;-84
2022/10/03 07:15:26;;;;;;;34.20;16.13;;;;;;;12.94;93.18;101005.56;5085844;28;20056;-84
2022/10/03 07:18:19;;;;;;;41.25;15.10;;;;;;;12.92;92.48;101005.66;5086808;28;20768;-83
2022/10/03 07:21:21;;;;;;;35.80;13.18;;;;;;;12.98;91.49;101012.34;5103926;28;20113;-83
2022/10/03 07:24:17;;;;;;;36.03;14.05;;;;;;;12.98;91.89;101010.53;5047519;28;20487;-84
2022/10/03 07:26:53;;;;;;;39.63;14.05;;;;;;;13.03;91.83;101019.00;5069308;28;20465;-84
2022/10/03 07:29:35;;;;;;;39.92;14.73;;;;;;;13.10;91.79;101023.81;5084125;28;20678;-83
2022/10/03 07:32:20;;;;;;;47.78;15.93;;;;;;;13.04;91.37;101025.19;5072178;28;20082;-84
2022/10/03 07:35:10;;;;;;;38.42;14.38;;;;;;;13.03;91.75;101019.00;5104496;28;20058;-84
2022/10/03 07:40:37;;;;;;;37.95;13.38;;;;;;;13.16;91.21;101023.34;5090287;28;20697;-84
2022/10/03 07:43:41;;;;;;;38.15;14.57;;;;;;;13.08;90.89;101028.44;5091419;28;20036;-79
2022/10/03 07:46:34;;;;;;;34.15;14.57;;;;;;;13.03;91.47;101029.66;5102330;28;20044;-79
2022/10/03 07:49:31;;;;;;;37.40;14.60;;;;;;;13.04;91.61;101030.50;5064715;28;20058;-79
2022/10/03 07:52:16;;;;;;;43.72;15.05;;;;;;;13.15;91.78;101034.97;5098462;28;20040;-79
2022/10/03 07:54:51;;;;;;;38.00;15.55;;;;;;;13.17;91.42;101033.88;5099237;28;20052;-79
2022/10/03 07:57:42;;;;;;;36.60;13.35;;;;;;;13.18;90.89;101032.09;5078065;28;20518;-79
2022/10/03 08:00:16;;;;;;;30.85;13.13;;;;;;;13.23;90.81;101038.75;5097989;28;20467;-80
2022/10/03 08:03:14;;;;;;;34.42;12.80;;;;;;;13.25;89.63;101030.59;5081066;28;20055;-80
2022/10/03 08:05:59;;;;;;;28.33;9.88;;;;;;;13.28;87.71;101037.53;5101308;28;20071;-80
2022/10/03 08:08:59;;;;;;;27.75;10.35;;;;;;;13.31;87.49;101043.50;5102276;28;20123;-80
2022/10/03 08:11:41;;;;;;;30.55;9.98;;;;;;;13.34;85.90;101045.91;5071153;28;20056;-81
2022/10/03 08:14:42;;;;;;;31.47;9.63;;;;;;;13.34;85.25;101042.41;5083725;28;20036;-81
2022/10/03 08:17:27;;;;;;;25.38;10.95;;;;;;;13.49;86.55;101041.16;5098522;28;20458;-80
2022/10/03 08:20:14;;;;;;;25.50;9.50;;;;;;;13.45;86.62;101043.19;5091525;28;20051;-81
2022/10/03 08:22:52;;;;;;;30.55;10.30;;;;;;;13.53;86.26;101047.06;5087392;28;20134;-81
2022/10/03 08:25:42;;;;;;;26.38;8.68;;;;;;;13.46;85.77;101047.59;5065361;28;20036;-82
2022/10/03 08:28:18;;;;;;;25.27;9.35;;;;;;;13.56;85.55;101053.03;5069857;28;20039;-82
2022/10/03 08:31:11;;;;;;;20.38;9.55;;;;;;;13.46;84.76;101052.91;5084486;28;20072;-82
2022/10/03 08:33:47;;;;;;;31.98;9.98;;;;;;;13.53;86.08;101039.91;5098694;28;20050;-82
2022/10/03 08:36:33;;;;;;;28.23;9.85;;;;;;;13.51;84.87;101054.34;5092269;28;20115;-81
2022/10/03 08:39:09;;;;;;;23.85;9.52;;;;;;;13.49;83.82;101046.47;5066079;28;20058;-80
2022/10/03 08:41:49;;;;;;;35.78;9.98;;;;;;;13.57;85.50;101053.88;5099335;28;20113;-80
2022/10/03 08:44:24;;;;;;;31.48;10.30;;;;;;;13.57;85.79;101049.38;5082213;28;20040;-81
2022/10/03 08:46:57;;;;;;;27.90;11.82;;;;;;;13.61;86.31;101042.81;5068772;28;20043;-80
2022/10/03 08:49:51;;;;;;;27.10;9.60;;;;;;;13.52;85.93;101043.56;5073944;28;20048;-81
2022/10/03 08:52:44;;;;;;;29.15;10.18;;;;;;;13.54;86.22;101046.97;5097330;28;20032;-81
2022/10/03 08:55:20;;;;;;;24.73;8.82;;;;;;;13.61;86.28;101045.50;5086888;28;20040;-81
2022/10/03 08:58:16;;;;;;;25.88;9.20;;;;;;;13.54;85.65;101044.28;5103503;28;20063;-81
2022/10/03 09:00:44;;;;;;;22.70;9.27;;;;;;;13.66;86.06;101040.63;5070113;28;20083;-81
2022/10/03 09:03:28;;;;;;;20.30;8.18;;;;;;;13.72;86.08;101044.59;5080222;28;20039;-80
2022/10/03 09:06:30;;;;;;;21.25;8.30;;;;;;;13.75;84.51;101038.16;5060383;28;20044;-80
2022/10/03 09:09:20;;;;;;;26.27;9.45;;;;;;;13.78;84.72;101036.06;5060007;28;20498;-80
2022/10/03 09:12:12;;;;;;;25.70;9.02;;;;;;;13.82;82.69;101042.88;5082101;28;20036;-80
2022/10/03 09:15:09;;;;;;;19.48;8.43;;;;;;;13.82;81.89;101039.34;5094586;28;20089;-80
2022/10/03 09:18:21;;;;;;;20.27;7.55;;;;;;;13.89;82.87;101041.38;5098898;28;20067;-79
2022/10/03 09:21:06;;;;;;;23.15;7.53;;;;;;;13.93;82.73;101038.44;5028760;28;20052;-79
2022/10/03 09:23:51;;;;;;;28.05;8.88;;;;;;;13.88;81.74;101041.50;5034187;28;20180;-79
2022/10/03 09:26:55;;;;;;;26.05;8.25;;;;;;;13.85;80.44;101042.59;5083091;28;20390;-79
2022/10/03 09:30:01;;;;;;;19.23;5.78;;;;;;;13.77;76.83;101039.72;5089082;28;20088;-78
2022/10/03 09:32:40;;;;;;;25.50;6.85;;;;;;;13.80;80.47;101042.13;5084406;28;20058;-79
2022/10/03 09:35:29;;;;;;;23.15;6.05;;;;;;;13.70;79.62;101038.53;5068465;28;20395;-79
2022/10/03 09:38:15;;;;;;;16.88;6.13;;;;;;;13.70;80.92;101043.88;5069903;28;20032;-79
2022/10/03 09:41:18;;;;;;;23.35;6.53;;;;;;;13.72;79.88;101041.09;5067677;28;20040;-79
2022/10/03 09:44:06;;;;;;;19.08;5.93;;;;;;;13.80;79.96;101036.78;5087966;28;20036;-79
2022/10/03 09:47:26;;;;;;;17.10;6.32;;;;;;;13.80;78.64;101039.47;5083279;28;20101;-79
2022/10/03 09:50:30;;;;;;;15.15;5.47;;;;;;;13.85;78.02;101031.91;5099492;28;20040;-79
2022/10/03 09:53:38;;;;;;;21.88;6.32;;;;;;;13.90;78.54;101037.72;5097549;28;20035;-79
2022/10/03 09:56:27;;;;;;;16.42;5.32;;;;;;;14.02;78.63;101037.69;5069715;28;20056;-79
2022/10/03 09:59:12;;;;;;;12.63;4.68;;;;;;;13.99;77.81;101040.59;5085877;28;20429;-80
2022/10/03 10:01:57;;;;;;;18.52;5.28;;;;;;;14.05;77.36;101034.75;5081343;28;20048;-79
2022/10/03 10:04:48;;;;;;;15.85;5.25;;;;;;;14.16;78.11;101029.34;5099564;28;20033;-80
2022/10/03 10:08:04;;;;;;;15.45;5.45;;;;;;;14.21;78.91;101035.16;5082707;28;20051;-80
2022/10/03 10:10:52;;;;;;;12.45;4.70;;;;;;;14.23;78.20;101033.19;5064100;28;20047;-79
2022/10/03 10:13:28;;;;;;;19.10;5.20;;;;;;;14.26;78.29;101035.59;5082577;28;20051;-80
2022/10/03 10:17:00;;;;;;;18.90;6.00;;;;;;;14.17;77.65;101041.75;5092441;28;20123;-79
2022/10/03 10:19:42;;;;;;;17.80;4.45;;;;;;;14.23;78.45;101048.38;5072132;28;20036;-79
2022/10/03 10:22:35;;;;;;;16.83;4.43;;;;;;;14.09;75.64;101042.41;5104674;28;20452;-79
2022/10/03 10:25:24;;;;;;;11.10;4.28;;;;;;;14.04;75.23;101044.59;5102399;28;20071;-79
2022/10/03 10:27:54;;;;;;;10.20;3.80;;;;;;;14.11;76.00;101044.91;5070421;28;20044;-79
2022/10/03 10:30:31;;;;;;;16.25;4.68;;;;;;;14.10;76.17;101036.06;5103425;28;20123;-79
2022/10/03 10:33:32;;;;;;;17.58;4.38;;;;;;;14.08;75.47;101035.34;5074390;28;20059;-79
2022/10/03 10:35:58;;;;;;;16.33;4.22;;;;;;;14.18;76.62;101037.25;5098728;28;20040;-79
2022/10/03 10:38:34;;;;;;;14.02;4.07;;;;;;;14.20;75.84;101041.47;5103564;28;20043;-79
2022/10/03 10:41:42;;;;;;;19.42;3.75;;;;;;;14.32;75.19;101034.22;5084744;28;20781;-79
2022/10/03 10:44:21;;;;;;;13.70;3.97;;;;;;;14.37;73.60;101032.00;4987150;28;20560;-79
2022/10/03 10:47:09;;;;;;;13.23;3.85;;;;;;;14.41;74.34;101032.63;5000415;28;20046;-79
2022/10/03 10:49:48;;;;;;;16.60;4.43;;;;;;;14.50;75.04;101031.81;5069997;28;20036;-79
2022/10/03 10:52:40;;;;;;;12.68;3.70;;;;;;;14.42;74.50;101031.63;5102004;28;20048;-78
2022/10/03 10:55:48;;;;;;;13.18;4.07;;;;;;;14.37;73.49;101026.66;5104318;28;20044;-79
2022/10/03 10:58:33;;;;;;;13.48;3.42;;;;;;;14.50;74.72;101024.66;5052956;28;20441;-79
2022/10/03 11:01:24;;;;;;;10.18;3.90;;;;;;;14.44;72.86;101022.50;5084399;28;20071;-80
2022/10/03 11:04:33;;;;;;;9.90;3.00;;;;;;;14.45;71.02;101010.84;5081979;28;20072;-79
2022/10/03 11:07:28;;;;;;;8.60;2.95;;;;;;;14.53;71.20;101018.25;5062180;28;20055;-79
2022/10/03 11:10:17;;;;;;;19.27;4.20;;;;;;;14.53;69.21;101013.72;5081722;28;20032;-79
2022/10/03 11:12:59;;;;;;;12.98;3.00;;;;;;;14.66;71.71;101010.84;5070383;28;20047;-80
2022/10/03 11:15:47;;;;;;;7.85;2.63;;;;;;;14.73;71.11;101008.47;5096538;28;20043;-80
2022/10/03 11:18:39;;;;;;;11.27;2.60;;;;;;;14.73;70.04;101012.00;5090606;28;20047;-79
2022/10/03 11:21:23;;;;;;;5.97;2.83;;;;;;;14.71;69.30;101008.63;5106726;28;20051;-80
2022/10/03 11:24:30;;;;;;;14.70;3.45;;;;;;;14.65;69.17;101008.28;5089168;28;20050;-80
2022/10/03 11:27:21;;;;;;;12.05;3.50;;;;;;;14.67;69.46;101004.50;5018446;28;20130;-79
2022/10/03 11:30:17;;;;;;;11.73;3.25;;;;;;;14.58;69.69;101004.44;5082669;28;20062;-80
2022/10/03 11:33:00;;;;;;;8.77;2.92;;;;;;;14.65;70.85;101009.13;5058107;28;20052;-79
2022/10/03 11:35:51;;;;;;;10.63;2.88;;;;;;;14.66;70.43;101001.97;5093081;28;20081;-79
2022/10/03 11:38:24;;;;;;;6.72;3.00;;;;;;;14.66;70.51;101004.66;5090359;28;20047;-79
2022/10/03 11:41:02;;;;;;;14.88;3.38;;;;;;;14.65;70.94;101008.28;5074214;28;20087;-79
2022/10/03 11:43:38;;;;;;;10.80;3.47;;;;;;;14.71;71.23;101013.13;5084339;28;20051;-79
2022/10/03 11:46:40;;;;;;;9.65;3.47;;;;;;;14.72;71.61;101010.28;5102661;28;20097;-80
2022/10/03 11:49:46;;;;;;;12.50;3.03;;;;;;;14.65;69.17;100997.59;4994509;28;20101;-80
2022/10/03 11:52:40;;;;;;;14.20;3.35;;;;;;;14.61;69.55;101002.38;5090552;28;20460;-80
2022/10/03 11:55:22;;;;;;;12.27;3.38;;;;;;;14.63;69.13;101002.22;5080475;28;20052;-80
2022/10/03 11:57:58;;;;;;;10.15;4.40;;;;;;;14.67;69.01;101006.34;5102822;28;20078;-80
2022/10/03 12:00:25;;;;;;;12.77;3.05;;;;;;;14.74;68.71;101000.31;5102933;28;20036;-79
2022/10/03 12:02:55;;;;;;;11.93;3.00;;;;;;;14.70;68.38;100995.38;5080463;28;20046;-80
2022/10/03 12:05:31;;;;;;;25.80;4.00;;;;;;;14.67;68.14;101001.00;5089463;28;20455;-80
2022/10/03 12:11:31;;;;;;;9.50;2.85;;;;;;;14.68;69.41;100995.53;5101309;28;20048;-80
2022/10/03 12:14:20;;;;;;;12.95;2.83;;;;;;;14.66;69.06;100984.09;5082746;28;20036;-79
2022/10/03 12:17:14;;;;;;;12.60;3.05;;;;;;;14.67;67.98;100985.78;5082211;28;20064;-79
2022/10/03 12:20:04;;;;;;;12.48;3.28;;;;;;;14.66;67.63;100977.91;5067950;28;20116;-80
2022/10/03 12:22:45;;;;;;;12.48;3.25;;;;;;;14.73;69.61;100979.94;5097889;28;20453;-79
2022/10/03 12:25:18;;;;;;;15.98;3.55;;;;;;;14.71;68.38;100976.53;5101404;28;20043;-79
2022/10/03 12:28:15;;;;;;;12.05;3.88;;;;;;;14.67;68.25;100974.25;5104195;28;20122;-79
2022/10/03 12:31:06;;;;;;;13.18;3.95;;;;;;;14.72;69.68;100970.19;5085589;28;20079;-80
2022/10/03 12:33:33;;;;;;;11.70;3.17;;;;;;;14.80;68.81;100966.84;5091150;28;20048;-80
2022/10/03 12:36:14;;;;;;;10.27;2.95;;;;;;;14.71;67.91;100970.34;5068032;28;20063;-80
2022/10/03 12:38:55;;;;;;;13.10;3.63;;;;;;;14.75;69.29;100969.91;5058697;28;20097;-80
2022/10/03 12:41:34;;;;;;;12.00;3.10;;;;;;;14.83;69.99;100963.06;5088237;28;20036;-80
2022/10/03 12:44:18;;;;;;;10.05;3.08;;;;;;;14.90;69.45;100964.22;5090651;28;20044;-80
2022/10/03 12:46:50;;;;;;;14.20;3.25;;;;;;;14.98;70.25;100962.56;5089190;28;20147;-80
2022/10/03 12:49:36;;;;;;;9.55;3.35;;;;;;;15.05;70.71;100970.88;5085904;28;20035;-80